createdAt,value
2022-12-29T00:00:46.611Z,6.12
2022-12-29T00:01:33.697Z,6.53
2022-12-29T00:02:20.559Z,6.72
2022-12-29T00:03:07.520Z,6.80
2022-12-29T00:03:54.446Z,6.68
2022-12-29T00:04:41.329Z,6.78
2022-12-29T00:05:28.267Z,7.25
2022-12-29T00:06:15.153Z,6.37
2022-12-29T00:07:02.174Z,6.60
2022-12-29T00:07:49.098Z,6.25
2022-12-29T00:08:41.924Z,7.30
2022-12-29T00:09:28.836Z,6.57
2022-12-29T00:10:15.749Z,6.65
2022-12-29T00:11:02.652Z,6.57
2022-12-29T00:11:51.265Z,6.43
2022-12-29T00:12:56.948Z,6.50
2022-12-29T00:14:03.073Z,5.95
2022-12-29T00:15:10.144Z,6.28
2022-12-29T00:15:57.023Z,8.07
2022-12-29T00:16:45.428Z,6.55
2022-12-29T00:17:32.324Z,6.60
2022-12-29T00:18:19.194Z,6.60
2022-12-29T00:19:06.315Z,6.70
2022-12-29T00:20:12.832Z,6.87
2022-12-29T00:21:19.368Z,7.00
2022-12-29T00:22:24.919Z,6.80
2022-12-29T00:23:30.429Z,6.28
2022-12-29T00:24:28.392Z,6.93
2022-12-29T00:25:34.689Z,6.55
2022-12-29T00:26:40.628Z,6.37
2022-12-29T00:27:49.602Z,6.90
2022-12-29T00:28:55.110Z,6.47
2022-12-29T00:30:00.729Z,6.47
2022-12-29T00:31:06.363Z,6.95
2022-12-29T00:32:11.908Z,6.90
2022-12-29T00:33:17.594Z,6.68
2022-12-29T00:34:23.489Z,7.12
2022-12-29T00:35:13.437Z,6.90
2022-12-29T00:36:05.580Z,6.43
2022-12-29T00:36:52.409Z,7.00
2022-12-29T00:38:02.907Z,6.95
2022-12-29T00:39:12.601Z,6.97
2022-12-29T00:40:18.171Z,6.97
2022-12-29T00:41:37.398Z,6.95
2022-12-29T00:42:42.739Z,6.50
2022-12-29T00:43:48.369Z,7.12
2022-12-29T00:44:35.268Z,6.50
2022-12-29T00:45:22.092Z,7.15
2022-12-29T00:46:11.722Z,6.57
2022-12-29T00:47:04.409Z,6.97
2022-12-29T00:47:51.267Z,7.72
2022-12-29T00:48:56.717Z,7.40
2022-12-29T00:49:43.648Z,6.78
2022-12-29T00:50:30.529Z,6.47
2022-12-29T00:51:17.422Z,7.37
2022-12-29T00:52:10.462Z,7.32
2022-12-29T00:52:57.271Z,6.90
2022-12-29T00:53:44.100Z,7.32
2022-12-29T00:54:33.142Z,7.80
2022-12-29T00:55:20.007Z,6.97
2022-12-29T00:56:06.938Z,6.82
2022-12-29T00:56:54.581Z,7.00
2022-12-29T00:57:41.454Z,6.60
2022-12-29T00:58:32.008Z,6.87
2022-12-29T00:59:19.644Z,7.15
2022-12-29T01:00:07.196Z,6.80
2022-12-29T01:00:54.060Z,6.70
2022-12-29T01:01:41.506Z,6.87
2022-12-29T01:02:29.757Z,6.93
2022-12-29T01:03:16.743Z,7.53
2022-12-29T01:04:05.005Z,7.22
2022-12-29T01:04:51.846Z,7.07
2022-12-29T01:05:38.967Z,7.45
2022-12-29T01:06:25.836Z,8.07
2022-12-29T01:07:12.668Z,6.80
2022-12-29T01:07:59.519Z,7.40
2022-12-29T01:08:46.337Z,7.03
2022-12-29T01:09:51.915Z,7.03
2022-12-29T01:10:38.763Z,8.05
2022-12-29T01:11:25.686Z,7.62
2022-12-29T01:12:12.784Z,7.78
2022-12-29T01:12:59.697Z,7.32
2022-12-29T01:13:46.568Z,7.60
2022-12-29T01:14:33.900Z,7.55
2022-12-29T01:15:20.987Z,7.20
2022-12-29T01:16:08.496Z,7.72
2022-12-29T01:16:56.208Z,7.47
2022-12-29T01:17:43.323Z,7.47
2022-12-29T01:18:30.329Z,7.15
2022-12-29T01:19:18.222Z,7.90
2022-12-29T01:20:05.985Z,7.15
2022-12-29T01:21:06.469Z,7.43
2022-12-29T01:21:54.104Z,7.37
2022-12-29T01:22:41.022Z,8.70
2022-12-29T01:23:28.148Z,7.47
2022-12-29T01:24:16.188Z,7.87
2022-12-29T01:25:04.765Z,7.78
2022-12-29T01:25:51.587Z,7.47
2022-12-29T01:26:38.523Z,7.95
2022-12-29T01:27:25.380Z,7.57
2022-12-29T01:28:12.259Z,7.80
2022-12-29T01:28:59.091Z,7.82
2022-12-29T01:29:45.926Z,8.07
2022-12-29T01:30:33.908Z,7.75
2022-12-29T01:31:20.807Z,7.43
2022-12-29T01:32:08.139Z,7.28
2022-12-29T01:32:55.081Z,7.97
2022-12-29T01:33:42.112Z,8.00
2022-12-29T01:34:28.988Z,7.43
2022-12-29T01:35:15.899Z,7.20
2022-12-29T01:36:06.665Z,7.68
2022-12-29T01:36:54.138Z,7.55
2022-12-29T01:37:41.018Z,8.07
2022-12-29T01:38:27.901Z,8.02
2022-12-29T01:39:14.708Z,8.05
2022-12-29T01:40:01.792Z,7.87
2022-12-29T01:40:49.370Z,7.60
2022-12-29T01:41:36.228Z,8.18
2022-12-29T01:42:25.634Z,7.80
2022-12-29T01:43:14.528Z,9.30
2022-12-29T01:44:02.865Z,7.97
2022-12-29T01:45:01.829Z,8.40
2022-12-29T01:45:53.186Z,8.20
2022-12-29T01:46:40.587Z,7.40
2022-12-29T01:47:41.191Z,7.90
2022-12-29T01:48:28.116Z,7.85
2022-12-29T01:49:20.710Z,7.82
2022-12-29T01:50:26.447Z,8.52
2022-12-29T01:51:13.281Z,7.55
2022-12-29T01:52:04.974Z,8.13
2022-12-29T01:53:08.648Z,7.65
2022-12-29T01:53:57.018Z,7.62
2022-12-29T01:54:51.430Z,8.35
2022-12-29T01:56:09.634Z,7.97
2022-12-29T01:57:02.599Z,7.80
2022-12-29T01:57:51.648Z,8.10
2022-12-29T01:58:41.549Z,8.23
2022-12-29T01:59:32.959Z,8.50
2022-12-29T02:00:20.559Z,8.55
2022-12-29T02:01:07.590Z,8.65
2022-12-29T02:01:54.815Z,8.70
2022-12-29T02:02:45.459Z,8.27
2022-12-29T02:04:20.611Z,7.50
2022-12-29T02:05:21.445Z,8.13
2022-12-29T02:07:16.440Z,7.87
2022-12-29T02:08:04.363Z,8.68
2022-12-29T02:08:54.534Z,8.40
2022-12-29T02:09:41.698Z,8.73
2022-12-29T02:10:31.812Z,9.23
2022-12-29T02:11:18.767Z,7.87
2022-12-29T02:12:05.706Z,8.75
2022-12-29T02:12:53.160Z,8.27
2022-12-29T02:13:40.021Z,8.20
2022-12-29T02:14:26.915Z,8.43
2022-12-29T02:15:13.984Z,8.10
2022-12-29T02:16:20.616Z,7.90
2022-12-29T02:17:22.113Z,8.38
2022-12-29T02:18:37.906Z,8.38
2022-12-29T02:19:53.348Z,8.70
2022-12-29T02:21:06.966Z,7.72
2022-12-29T02:22:02.118Z,8.65
2022-12-29T02:23:12.979Z,7.87
2022-12-29T02:24:11.748Z,8.20
2022-12-29T02:25:20.067Z,8.23
2022-12-29T02:26:40.847Z,8.20
2022-12-29T02:27:52.118Z,8.48
2022-12-29T02:29:13.433Z,8.20
2022-12-29T02:30:35.388Z,7.95
2022-12-29T02:31:29.500Z,8.57
2022-12-29T02:32:21.657Z,8.75
2022-12-29T02:33:20.719Z,9.43
2022-12-29T02:34:07.459Z,8.18
2022-12-29T02:35:06.750Z,8.43
2022-12-29T02:36:23.520Z,8.35
2022-12-29T02:37:35.069Z,8.85
2022-12-29T02:38:33.077Z,8.07
2022-12-29T02:39:36.479Z,8.50
2022-12-29T02:40:46.308Z,8.88
2022-12-29T02:42:18.244Z,8.88
2022-12-29T02:43:10.876Z,8.38
2022-12-29T02:44:29.991Z,8.25
2022-12-29T02:45:37.021Z,9.10
2022-12-29T02:46:37.222Z,8.90
2022-12-29T02:47:29.982Z,8.38
2022-12-29T02:48:21.580Z,8.73
2022-12-29T02:49:08.380Z,8.20
2022-12-29T02:50:36.696Z,9.55
2022-12-29T02:51:31.263Z,8.98
2022-12-29T02:52:20.769Z,9.00
2022-12-29T02:53:17.309Z,8.85
2022-12-29T02:54:23.257Z,8.65
2022-12-29T02:55:12.757Z,9.63
2022-12-29T02:55:59.567Z,9.85
2022-12-29T02:56:46.501Z,8.95
2022-12-29T02:57:35.813Z,9.30
2022-12-29T02:58:24.359Z,8.43
2022-12-29T02:59:11.567Z,9.18
2022-12-29T03:00:12.616Z,9.50
2022-12-29T03:01:40.289Z,8.95
2022-12-29T03:02:27.266Z,9.30
2022-12-29T03:03:43.106Z,9.82
2022-12-29T03:04:43.500Z,9.55
2022-12-29T03:06:11.597Z,9.20
2022-12-29T03:07:04.484Z,8.48
2022-12-29T03:08:13.104Z,8.95
2022-12-29T03:09:06.704Z,10.02
2022-12-29T03:10:15.189Z,9.23
2022-12-29T03:11:38.668Z,9.07
2022-12-29T03:12:50.010Z,9.75
2022-12-29T03:14:11.562Z,9.70
2022-12-29T03:15:30.436Z,9.70
2022-12-29T03:16:22.630Z,10.50
2022-12-29T03:17:54.116Z,9.13
2022-12-29T03:19:16.949Z,8.95
2022-12-29T03:20:10.648Z,9.27
2022-12-29T03:21:05.339Z,9.23
2022-12-29T03:22:28.525Z,8.90
2022-12-29T03:23:15.695Z,8.88
2022-12-29T03:24:03.533Z,9.27
2022-12-29T03:24:53.459Z,9.48
2022-12-29T03:25:44.986Z,8.82
2022-12-29T03:26:32.287Z,10.30
2022-12-29T03:27:23.146Z,9.70
2022-12-29T03:28:13.977Z,9.35
2022-12-29T03:29:01.005Z,9.48
2022-12-29T03:29:54.438Z,9.32
2022-12-29T03:30:42.440Z,8.93
2022-12-29T03:31:29.566Z,9.63
2022-12-29T03:32:17.829Z,9.38
2022-12-29T03:33:07.595Z,8.85
2022-12-29T03:33:55.035Z,9.85
2022-12-29T03:34:42.107Z,8.82
2022-12-29T03:35:31.756Z,9.90
2022-12-29T03:36:28.105Z,10.27
2022-12-29T03:37:18.124Z,10.52
2022-12-29T03:38:12.985Z,10.57
2022-12-29T03:39:05.256Z,9.77
2022-12-29T03:39:52.386Z,11.43
2022-12-29T03:40:42.187Z,10.38
2022-12-29T03:41:32.196Z,10.38
2022-12-29T03:42:21.735Z,7.78
2022-12-29T03:43:08.728Z,10.00
2022-12-29T03:43:55.600Z,10.45
2022-12-29T03:44:44.347Z,10.20
2022-12-29T03:45:31.278Z,11.68
2022-12-29T03:46:18.513Z,10.10
2022-12-29T03:47:05.634Z,10.50
2022-12-29T03:47:54.381Z,11.00
2022-12-29T03:48:41.335Z,9.85
2022-12-29T03:49:28.263Z,10.70
2022-12-29T03:50:15.592Z,10.07
2022-12-29T03:51:02.493Z,9.90
2022-12-29T03:51:51.909Z,11.35
2022-12-29T03:52:38.941Z,10.57
2022-12-29T03:53:25.895Z,10.63
2022-12-29T03:54:12.784Z,10.15
2022-12-29T03:54:59.712Z,10.68
2022-12-29T03:55:46.700Z,10.10
2022-12-29T03:56:33.534Z,10.32
2022-12-29T03:57:20.760Z,10.38
2022-12-29T03:58:07.547Z,10.00
2022-12-29T03:58:54.526Z,9.90
2022-12-29T03:59:41.346Z,10.63
2022-12-29T04:00:29.472Z,10.65
2022-12-29T04:01:16.387Z,10.80
2022-12-29T04:02:05.105Z,10.23
2022-12-29T04:02:52.262Z,10.80
2022-12-29T04:03:39.805Z,11.00
2022-12-29T04:04:26.706Z,10.75
2022-12-29T04:05:13.625Z,10.43
2022-12-29T04:06:01.272Z,11.65
2022-12-29T04:06:48.167Z,11.30
2022-12-29T04:07:35.006Z,10.88
2022-12-29T04:08:21.878Z,10.98
2022-12-29T04:09:08.829Z,11.55
2022-12-29T04:09:55.658Z,10.88
2022-12-29T04:10:42.557Z,10.68
2022-12-29T04:11:33.090Z,11.30
2022-12-29T04:12:20.405Z,10.95
2022-12-29T04:13:07.247Z,10.65
2022-12-29T04:13:54.325Z,10.88
2022-12-29T04:14:41.624Z,11.15
2022-12-29T04:15:28.516Z,10.73
2022-12-29T04:16:15.941Z,10.63
2022-12-29T04:17:02.958Z,10.80
2022-12-29T04:17:49.875Z,10.68
2022-12-29T04:18:36.735Z,10.25
2022-12-29T04:19:23.526Z,10.65
2022-12-29T04:20:29.352Z,10.45
2022-12-29T04:21:16.375Z,9.73
2022-12-29T04:22:05.199Z,10.02
2022-12-29T04:23:00.227Z,9.70
2022-12-29T04:23:47.118Z,10.48
2022-12-29T04:24:33.999Z,10.45
2022-12-29T04:25:20.827Z,10.77
2022-12-29T04:26:08.797Z,10.02
2022-12-29T04:26:55.765Z,10.18
2022-12-29T04:27:42.695Z,9.68
2022-12-29T04:28:30.177Z,10.65
2022-12-29T04:29:17.447Z,9.93
2022-12-29T04:30:04.741Z,11.15
2022-12-29T04:30:51.946Z,10.93
2022-12-29T04:31:38.845Z,10.00
2022-12-29T04:32:25.736Z,11.05
2022-12-29T04:33:12.784Z,10.18
2022-12-29T04:34:01.163Z,10.45
2022-12-29T04:34:47.984Z,10.35
2022-12-29T04:35:35.025Z,10.43
2022-12-29T04:36:27.844Z,10.82
2022-12-29T04:37:16.726Z,10.50
2022-12-29T04:38:04.198Z,11.10
2022-12-29T04:38:51.072Z,9.48
2022-12-29T04:39:37.942Z,10.43
2022-12-29T04:40:25.031Z,10.05
2022-12-29T04:41:11.893Z,9.48
2022-12-29T04:41:58.707Z,11.10
2022-12-29T04:42:45.587Z,9.57
2022-12-29T04:43:32.498Z,10.27
2022-12-29T04:44:19.327Z,10.68
2022-12-29T04:45:06.921Z,10.18
2022-12-29T04:45:53.839Z,9.82
2022-12-29T04:46:40.804Z,10.90
2022-12-29T04:47:27.607Z,9.90
2022-12-29T04:48:15.206Z,9.90
2022-12-29T04:49:05.802Z,10.38
2022-12-29T04:50:39.904Z,9.25
2022-12-29T04:51:26.789Z,9.23
2022-12-29T04:52:13.628Z,10.50
2022-12-29T04:53:00.515Z,10.15
2022-12-29T04:53:47.357Z,9.52
2022-12-29T04:54:34.207Z,9.05
2022-12-29T04:55:21.146Z,9.38
2022-12-29T04:56:08.214Z,10.50
2022-12-29T04:56:55.058Z,9.90
2022-12-29T04:57:42.122Z,10.30
2022-12-29T04:58:28.961Z,9.20
2022-12-29T04:59:15.810Z,9.65
2022-12-29T05:00:02.929Z,9.10
2022-12-29T05:00:49.834Z,8.85
2022-12-29T05:01:36.783Z,8.70
2022-12-29T05:02:24.104Z,8.40
2022-12-29T05:03:11.239Z,8.98
2022-12-29T05:03:58.401Z,8.77
2022-12-29T05:04:45.363Z,8.65
2022-12-29T05:05:32.216Z,8.57
2022-12-29T05:06:19.055Z,8.50
2022-12-29T05:07:05.944Z,9.07
2022-12-29T05:07:52.768Z,9.05
2022-12-29T05:08:39.618Z,9.05
2022-12-29T05:09:26.477Z,9.20
2022-12-29T05:10:13.377Z,9.05
2022-12-29T05:11:01.243Z,9.10
2022-12-29T05:11:48.103Z,9.43
2022-12-29T05:12:36.170Z,9.50
2022-12-29T05:13:23.021Z,9.40
2022-12-29T05:14:09.919Z,10.05
2022-12-29T05:14:56.779Z,9.40
2022-12-29T05:15:49.569Z,9.18
2022-12-29T05:16:36.561Z,10.25
2022-12-29T05:17:23.483Z,9.73
2022-12-29T05:18:10.348Z,10.70
2022-12-29T05:18:57.174Z,10.68
2022-12-29T05:19:43.998Z,10.85
2022-12-29T05:20:30.835Z,11.65
2022-12-29T05:21:17.659Z,8.88
2022-12-29T05:22:04.543Z,8.82
2022-12-29T05:22:51.433Z,9.10
2022-12-29T05:23:38.291Z,10.35
2022-12-29T05:24:25.098Z,9.93
2022-12-29T05:25:12.016Z,8.00
2022-12-29T05:25:58.823Z,8.60
2022-12-29T05:26:45.648Z,8.35
2022-12-29T05:27:32.528Z,8.02
2022-12-29T05:28:20.386Z,8.27
2022-12-29T05:29:07.222Z,8.82
2022-12-29T05:29:54.561Z,8.57
2022-12-29T05:30:41.409Z,8.18
2022-12-29T05:31:28.518Z,8.02
2022-12-29T05:32:15.400Z,7.72
2022-12-29T05:33:02.377Z,8.57
2022-12-29T05:33:49.249Z,8.07
2022-12-29T05:34:36.128Z,8.57
2022-12-29T05:35:22.940Z,7.60
2022-12-29T05:36:10.630Z,7.72
2022-12-29T05:36:57.449Z,7.75
2022-12-29T05:37:44.403Z,8.55
2022-12-29T05:38:31.267Z,8.27
2022-12-29T05:39:18.269Z,8.35
2022-12-29T05:40:05.848Z,8.18
2022-12-29T05:40:52.659Z,7.80
2022-12-29T05:41:39.477Z,7.68
2022-12-29T05:42:26.358Z,8.85
2022-12-29T05:43:13.213Z,7.60
2022-12-29T05:44:00.134Z,8.90
2022-12-29T05:44:46.979Z,7.85
2022-12-29T05:45:33.787Z,7.78
2022-12-29T05:46:20.673Z,7.22
2022-12-29T05:47:07.786Z,7.53
2022-12-29T05:47:54.689Z,7.87
2022-12-29T05:48:41.543Z,8.13
2022-12-29T05:49:28.408Z,8.10
2022-12-29T05:50:15.272Z,8.25
2022-12-29T05:51:02.140Z,8.43
2022-12-29T05:51:49.007Z,8.73
2022-12-29T05:52:35.828Z,8.35
2022-12-29T05:53:22.664Z,9.20
2022-12-29T05:54:09.513Z,7.85
2022-12-29T05:54:56.378Z,8.13
2022-12-29T05:55:48.529Z,8.52
2022-12-29T05:56:35.807Z,8.35
2022-12-29T05:57:22.687Z,9.05
2022-12-29T05:58:09.538Z,8.70
2022-12-29T05:58:56.367Z,8.57
2022-12-29T05:59:43.203Z,8.50
2022-12-29T06:00:30.051Z,9.90
2022-12-29T06:01:17.136Z,9.52
2022-12-29T06:02:04.383Z,9.25
2022-12-29T06:02:51.510Z,9.00
2022-12-29T06:03:42.951Z,8.73
2022-12-29T06:04:32.980Z,9.15
2022-12-29T06:05:20.075Z,8.30
2022-12-29T06:06:07.119Z,9.07
2022-12-29T06:06:53.958Z,8.38
2022-12-29T06:07:40.887Z,8.25
2022-12-29T06:08:27.809Z,8.35
2022-12-29T06:09:14.782Z,8.93
2022-12-29T06:10:01.764Z,8.80
2022-12-29T06:10:48.630Z,8.93
2022-12-29T06:11:35.748Z,9.35
2022-12-29T06:12:22.598Z,8.75
2022-12-29T06:13:10.172Z,9.10
2022-12-29T06:13:57.014Z,9.07
2022-12-29T06:14:43.989Z,9.15
2022-12-29T06:15:30.937Z,9.73
2022-12-29T06:16:17.829Z,8.57
2022-12-29T06:17:04.865Z,9.13
2022-12-29T06:17:51.708Z,8.80
2022-12-29T06:18:38.568Z,8.38
2022-12-29T06:19:25.468Z,8.52
2022-12-29T06:20:12.347Z,8.20
2022-12-29T06:21:03.765Z,8.65
2022-12-29T06:21:50.604Z,7.87
2022-12-29T06:22:37.908Z,8.57
2022-12-29T06:23:24.730Z,8.80
2022-12-29T06:24:12.238Z,8.07
2022-12-29T06:25:04.557Z,8.15
2022-12-29T06:25:52.209Z,8.57
2022-12-29T06:26:39.048Z,8.07
2022-12-29T06:27:26.048Z,8.43
2022-12-29T06:28:13.918Z,8.82
2022-12-29T06:29:01.325Z,8.68
2022-12-29T06:29:48.208Z,8.57
2022-12-29T06:30:35.125Z,8.00
2022-12-29T06:31:22.119Z,7.97
2022-12-29T06:32:09.159Z,8.43
2022-12-29T06:32:56.119Z,7.72
2022-12-29T06:33:45.210Z,7.80
2022-12-29T06:34:35.228Z,8.00
2022-12-29T06:35:23.601Z,8.27
2022-12-29T06:36:10.415Z,8.15
2022-12-29T06:36:57.243Z,8.15
2022-12-29T06:37:44.470Z,8.13
2022-12-29T06:38:31.442Z,8.77
2022-12-29T06:39:18.336Z,8.68
2022-12-29T06:40:05.711Z,8.13
2022-12-29T06:40:52.610Z,8.95
2022-12-29T06:41:39.448Z,9.75
2022-12-29T06:42:26.344Z,8.70
2022-12-29T06:43:13.313Z,9.65
2022-12-29T06:44:00.186Z,9.20
2022-12-29T06:44:47.072Z,9.85
2022-12-29T06:45:33.999Z,8.50
2022-12-29T06:46:21.003Z,8.75
2022-12-29T06:47:07.957Z,8.48
2022-12-29T06:47:54.779Z,9.48
2022-12-29T06:48:43.331Z,9.27
2022-12-29T06:49:30.232Z,9.65
2022-12-29T06:50:17.114Z,9.30
2022-12-29T06:51:04.563Z,10.07
2022-12-29T06:51:51.436Z,9.35
2022-12-29T06:52:38.317Z,9.82
2022-12-29T06:53:25.267Z,9.88
2022-12-29T06:54:12.206Z,9.52
2022-12-29T06:55:00.072Z,9.38
2022-12-29T06:55:46.927Z,9.93
2022-12-29T06:56:33.830Z,10.23
2022-12-29T06:57:20.850Z,11.10
2022-12-29T06:58:07.679Z,9.38
2022-12-29T06:58:54.497Z,9.40
2022-12-29T06:59:41.319Z,9.07
2022-12-29T07:00:28.238Z,10.35
2022-12-29T07:01:15.128Z,9.40
2022-12-29T07:02:03.421Z,9.40
2022-12-29T07:02:50.865Z,9.63
2022-12-29T07:03:37.836Z,9.13
2022-12-29T07:04:24.928Z,8.70
2022-12-29T07:05:11.982Z,9.80
2022-12-29T07:05:59.308Z,8.93
2022-12-29T07:06:46.168Z,9.35
2022-12-29T07:07:33.025Z,9.63
2022-12-29T07:08:20.599Z,9.30
2022-12-29T07:09:07.998Z,9.50
2022-12-29T07:09:54.812Z,9.05
2022-12-29T07:10:41.746Z,9.68
2022-12-29T07:11:28.576Z,9.80
2022-12-29T07:12:15.629Z,9.05
2022-12-29T07:13:02.520Z,9.98
2022-12-29T07:13:49.366Z,9.32
2022-12-29T07:14:42.671Z,9.63
2022-12-29T07:15:30.350Z,9.68
2022-12-29T07:16:17.427Z,10.68
2022-12-29T07:17:07.427Z,9.60
2022-12-29T07:17:54.429Z,9.90
2022-12-29T07:18:41.262Z,9.45
2022-12-29T07:19:28.203Z,10.07
2022-12-29T07:20:15.084Z,9.68
2022-12-29T07:21:02.086Z,9.95
2022-12-29T07:21:49.013Z,9.63
2022-12-29T07:22:36.796Z,8.27
2022-12-29T07:23:23.719Z,9.30
2022-12-29T07:24:10.679Z,9.27
2022-12-29T07:24:57.529Z,8.70
2022-12-29T07:25:44.319Z,9.38
2022-12-29T07:26:36.101Z,8.80
2022-12-29T07:27:23.451Z,9.07
2022-12-29T07:28:10.268Z,8.30
2022-12-29T07:28:57.104Z,8.70
2022-12-29T07:29:43.957Z,8.50
2022-12-29T07:30:30.938Z,8.32
2022-12-29T07:31:20.210Z,8.73
2022-12-29T07:32:07.166Z,7.87
2022-12-29T07:32:54.259Z,8.65
2022-12-29T07:33:41.078Z,8.00
2022-12-29T07:34:27.918Z,8.55
2022-12-29T07:35:14.921Z,9.73
2022-12-29T07:36:01.791Z,9.23
2022-12-29T07:36:48.652Z,9.05
2022-12-29T07:37:36.071Z,8.52
2022-12-29T07:38:22.950Z,8.70
2022-12-29T07:39:09.893Z,9.02
2022-12-29T07:39:56.789Z,9.07
2022-12-29T07:40:44.178Z,9.10
2022-12-29T07:41:31.161Z,8.95
2022-12-29T07:42:18.067Z,8.68
2022-12-29T07:43:05.268Z,9.73
2022-12-29T07:43:52.184Z,9.32
2022-12-29T07:44:39.050Z,9.55
2022-12-29T07:45:25.877Z,9.60
2022-12-29T07:46:54.421Z,9.60
2022-12-29T07:47:19.550Z,8.73
2022-12-29T07:48:08.830Z,8.93
2022-12-29T07:48:55.712Z,9.95
2022-12-29T07:49:42.558Z,9.30
2022-12-29T07:50:29.906Z,9.68
2022-12-29T07:51:16.757Z,9.43
2022-12-29T07:52:03.727Z,9.77
2022-12-29T07:52:50.679Z,9.25
2022-12-29T07:53:37.548Z,9.35
2022-12-29T07:54:24.888Z,9.85
2022-12-29T07:55:11.749Z,10.43
2022-12-29T07:55:59.318Z,10.07
2022-12-29T07:56:46.716Z,9.68
2022-12-29T07:57:33.685Z,9.20
2022-12-29T07:58:20.518Z,9.68
2022-12-29T07:59:07.476Z,8.95
2022-12-29T07:59:54.317Z,9.85
2022-12-29T08:00:41.278Z,10.02
2022-12-29T08:01:28.260Z,10.25
2022-12-29T08:02:15.314Z,11.27
2022-12-29T08:03:02.366Z,10.43
2022-12-29T08:03:53.969Z,10.68
2022-12-29T08:04:43.799Z,10.13
2022-12-29T08:05:32.258Z,11.15
2022-12-29T08:06:19.690Z,10.50
2022-12-29T08:07:06.636Z,9.90
2022-12-29T08:07:53.460Z,10.20
2022-12-29T08:08:40.324Z,10.02
2022-12-29T08:09:27.145Z,10.55
2022-12-29T08:10:14.997Z,11.48
2022-12-29T08:11:01.820Z,10.30
2022-12-29T08:11:48.811Z,11.07
2022-12-29T08:12:35.628Z,12.37
2022-12-29T08:13:22.458Z,12.25
2022-12-29T08:14:09.278Z,11.68
2022-12-29T08:14:56.067Z,11.75
2022-12-29T08:15:43.018Z,12.48
2022-12-29T08:16:29.960Z,13.50
2022-12-29T08:17:16.987Z,13.13
2022-12-29T08:18:04.966Z,13.38
2022-12-29T08:18:51.792Z,13.65
2022-12-29T08:19:39.055Z,16.02
2022-12-29T08:20:25.966Z,13.82
2022-12-29T08:21:13.297Z,14.70
2022-12-29T08:22:00.233Z,14.32
2022-12-29T08:22:47.198Z,13.88
2022-12-29T08:23:34.477Z,16.33
2022-12-29T08:24:21.533Z,15.48
2022-12-29T08:25:08.903Z,14.70
2022-12-29T08:26:04.079Z,16.33
2022-12-29T08:26:51.021Z,15.90
2022-12-29T08:27:37.925Z,14.43
2022-12-29T08:28:24.773Z,15.40
2022-12-29T08:29:11.688Z,14.07
2022-12-29T08:29:58.530Z,16.05
2022-12-29T08:30:45.412Z,15.18
2022-12-29T08:31:32.380Z,15.43
2022-12-29T08:32:19.578Z,15.98
2022-12-29T08:33:06.397Z,15.80
2022-12-29T08:33:53.810Z,16.15
2022-12-29T08:34:40.746Z,15.38
2022-12-29T08:35:27.646Z,15.80
2022-12-29T08:36:14.513Z,15.05
2022-12-29T08:37:01.424Z,15.02
2022-12-29T08:37:48.252Z,15.73
2022-12-29T08:38:35.229Z,15.55
2022-12-29T08:39:22.218Z,14.00
2022-12-29T08:40:09.877Z,15.07
2022-12-29T08:40:57.695Z,16.65
2022-12-29T08:41:44.574Z,15.90
2022-12-29T08:42:32.683Z,15.23
2022-12-29T08:43:19.718Z,16.02
2022-12-29T08:44:07.090Z,15.80
2022-12-29T08:44:53.939Z,17.35
2022-12-29T08:45:40.778Z,15.88
2022-12-29T08:46:27.635Z,15.38
2022-12-29T08:47:14.560Z,16.20
2022-12-29T08:48:01.486Z,15.15
2022-12-29T08:48:48.376Z,15.98
2022-12-29T08:49:35.206Z,14.70
2022-12-29T08:50:22.018Z,16.05
2022-12-29T08:51:09.118Z,15.15
2022-12-29T08:51:55.964Z,15.13
2022-12-29T08:52:42.827Z,15.52
2022-12-29T08:53:29.739Z,15.40
2022-12-29T08:54:16.557Z,13.98
2022-12-29T08:55:03.458Z,16.45
2022-12-29T08:56:02.141Z,15.77
2022-12-29T08:56:51.432Z,15.68
2022-12-29T08:57:38.273Z,15.40
2022-12-29T08:58:25.841Z,15.73
2022-12-29T08:59:12.694Z,16.52
2022-12-29T08:59:59.589Z,15.00
2022-12-29T09:00:46.438Z,15.98
2022-12-29T09:01:34.825Z,15.32
2022-12-29T09:02:24.573Z,15.50
2022-12-29T09:03:12.038Z,15.43
2022-12-29T09:04:16.727Z,15.25
2022-12-29T09:05:04.799Z,15.10
2022-12-29T09:05:53.057Z,15.00
2022-12-29T09:06:40.668Z,15.57
2022-12-29T09:07:27.787Z,14.02
2022-12-29T09:08:14.652Z,16.58
2022-12-29T09:09:01.876Z,14.52
2022-12-29T09:09:48.823Z,15.00
2022-12-29T09:10:35.712Z,14.07
2022-12-29T09:11:24.888Z,15.55
2022-12-29T09:12:11.880Z,15.27
2022-12-29T09:12:58.776Z,14.70
2022-12-29T09:13:45.765Z,14.80
2022-12-29T09:14:32.660Z,14.23
2022-12-29T09:15:19.517Z,15.23
2022-12-29T09:16:06.836Z,14.77
2022-12-29T09:17:13.119Z,15.35
2022-12-29T09:17:59.969Z,14.55
2022-12-29T09:18:46.861Z,15.13
2022-12-29T09:19:33.697Z,15.05
2022-12-29T09:20:21.000Z,14.38
2022-12-29T09:21:08.780Z,14.70
2022-12-29T09:21:55.681Z,15.70
2022-12-29T09:22:43.202Z,15.07
2022-12-29T09:23:30.933Z,14.48
2022-12-29T09:24:17.872Z,14.73
2022-12-29T09:25:05.472Z,16.08
2022-12-29T09:25:52.570Z,15.00
2022-12-29T09:26:46.712Z,14.87
2022-12-29T09:27:33.967Z,14.90
2022-12-29T09:28:21.406Z,14.00
2022-12-29T09:29:08.309Z,15.50
2022-12-29T09:29:55.137Z,15.50
2022-12-29T09:30:42.889Z,16.15
2022-12-29T09:31:29.815Z,15.13
2022-12-29T09:32:18.701Z,15.68
2022-12-29T09:33:06.322Z,16.33
2022-12-29T09:33:53.175Z,16.62
2022-12-29T09:34:40.166Z,14.70
2022-12-29T09:35:27.011Z,15.30
2022-12-29T09:36:13.823Z,15.27
2022-12-29T09:37:00.714Z,15.70
2022-12-29T09:37:47.641Z,15.65
2022-12-29T09:38:34.545Z,15.38
2022-12-29T09:39:21.379Z,14.95
2022-12-29T09:40:09.178Z,14.98
2022-12-29T09:41:01.955Z,15.77
2022-12-29T09:41:57.967Z,14.70
2022-12-29T09:42:58.998Z,15.27
2022-12-29T09:44:29.053Z,14.43
2022-12-29T09:45:16.197Z,15.02
2022-12-29T09:46:08.958Z,14.05
2022-12-29T09:46:56.442Z,14.20
2022-12-29T09:47:46.790Z,14.35
2022-12-29T09:48:36.602Z,14.48
2022-12-29T09:49:42.251Z,15.05
2022-12-29T09:50:34.710Z,14.32
2022-12-29T09:51:24.143Z,13.80
2022-12-29T09:52:17.008Z,15.20
2022-12-29T09:53:12.812Z,15.20
2022-12-29T09:54:03.782Z,15.27
2022-12-29T09:55:09.112Z,15.50
2022-12-29T09:56:02.681Z,14.93
2022-12-29T09:56:50.047Z,15.57
2022-12-29T09:57:56.000Z,15.23
2022-12-29T09:58:52.831Z,15.43
2022-12-29T09:59:42.358Z,15.25
2022-12-29T10:00:42.477Z,15.43
2022-12-29T10:01:33.629Z,15.27
2022-12-29T10:02:33.904Z,14.93
2022-12-29T10:03:21.923Z,16.02
2022-12-29T10:04:11.399Z,16.35
2022-12-29T10:04:58.622Z,16.35
2022-12-29T10:05:58.040Z,15.45
2022-12-29T10:07:28.502Z,15.73
2022-12-29T10:08:26.892Z,15.60
2022-12-29T10:09:21.683Z,14.73
2022-12-29T10:10:31.986Z,16.10
2022-12-29T10:11:35.690Z,15.48
2022-12-29T10:13:21.140Z,15.32
2022-12-29T10:14:19.989Z,15.43
2022-12-29T10:15:12.611Z,14.82
2022-12-29T10:16:31.750Z,14.43
2022-12-29T10:17:29.471Z,15.45
2022-12-29T10:18:42.061Z,15.68
2022-12-29T10:19:47.412Z,15.45
2022-12-29T10:20:58.501Z,15.27
2022-12-29T10:23:05.914Z,14.80
2022-12-29T10:23:54.360Z,14.55
2022-12-29T10:24:41.800Z,14.60
2022-12-29T10:25:33.195Z,14.98
2022-12-29T10:26:41.116Z,15.98
2022-12-29T10:27:27.991Z,15.82
2022-12-29T10:28:30.300Z,15.48
2022-12-29T10:29:21.954Z,15.02
2022-12-29T10:30:13.634Z,14.63
2022-12-29T10:31:06.843Z,15.95
2022-12-29T10:32:00.645Z,15.13
2022-12-29T10:32:57.012Z,15.38
2022-12-29T10:33:44.004Z,15.52
2022-12-29T10:34:30.828Z,15.20
2022-12-29T10:35:20.162Z,15.00
2022-12-29T10:36:16.103Z,16.48
2022-12-29T10:37:54.641Z,15.20
2022-12-29T10:39:00.080Z,14.98
2022-12-29T10:39:51.000Z,15.30
2022-12-29T10:40:42.991Z,15.25
2022-12-29T10:42:00.606Z,15.50
2022-12-29T10:42:53.577Z,15.65
2022-12-29T10:43:48.857Z,15.43
2022-12-29T10:44:35.948Z,14.85
2022-12-29T10:45:25.911Z,15.55
2022-12-29T10:46:15.835Z,15.90
2022-12-29T10:47:09.633Z,16.15
2022-12-29T10:48:06.883Z,16.08
2022-12-29T10:48:53.867Z,15.65
2022-12-29T10:49:43.842Z,15.38
2022-12-29T10:50:31.087Z,15.10
2022-12-29T10:51:25.073Z,16.95
2022-12-29T10:52:12.992Z,14.60
2022-12-29T10:53:02.662Z,14.38
2022-12-29T10:53:56.843Z,16.05
2022-12-29T10:55:04.073Z,14.93
2022-12-29T10:55:51.494Z,15.02
2022-12-29T10:56:53.255Z,15.38
2022-12-29T10:57:45.487Z,15.30
2022-12-29T10:58:33.723Z,15.25
2022-12-29T10:59:24.112Z,15.43
2022-12-29T11:00:21.869Z,15.05
2022-12-29T11:01:11.954Z,14.75
2022-12-29T11:02:08.242Z,15.52
2022-12-29T11:03:29.186Z,15.07
2022-12-29T11:04:33.190Z,15.55
2022-12-29T11:05:26.921Z,14.38
2022-12-29T11:06:19.432Z,15.18
2022-12-29T11:07:13.309Z,15.18
2022-12-29T11:08:23.993Z,14.02
2022-12-29T11:09:14.333Z,15.70
2022-12-29T11:10:23.041Z,14.82
2022-12-29T11:11:11.150Z,13.80
2022-12-29T11:11:57.972Z,13.60
2022-12-29T11:12:57.572Z,14.60